createdAt,value
2023-04-15T00:01:27.511Z,15.97
2023-04-15T00:03:59.639Z,15.97
2023-04-15T00:06:31.356Z,15.96
2023-04-15T00:09:04.092Z,15.96
2023-04-15T00:11:35.799Z,15.96
2023-04-15T00:14:07.723Z,15.95
2023-04-15T00:16:39.220Z,15.95
2023-04-15T00:19:10.648Z,15.95
2023-04-15T00:21:42.196Z,15.93
2023-04-15T00:24:14.112Z,15.92
2023-04-15T00:26:45.529Z,15.91
2023-04-15T00:29:17.164Z,15.90
2023-04-15T00:31:48.436Z,15.89
2023-04-15T00:34:20.350Z,15.89
2023-04-15T00:36:51.754Z,15.87
2023-04-15T00:39:23.928Z,15.87
2023-04-15T00:41:56.377Z,15.85
2023-04-15T00:44:27.665Z,15.84
2023-04-15T00:47:00.495Z,15.83
2023-04-15T00:49:32.567Z,15.82
2023-04-15T00:52:05.009Z,15.82
2023-04-15T00:54:36.680Z,15.81
2023-04-15T00:57:09.896Z,15.81
2023-04-15T00:59:41.343Z,15.80
2023-04-15T01:02:13.045Z,15.81
2023-04-15T01:04:44.976Z,15.80
2023-04-15T01:07:16.560Z,15.80
2023-04-15T01:09:48.272Z,15.79
2023-04-15T01:12:21.489Z,15.80
2023-04-15T01:14:52.849Z,15.80
2023-04-15T01:17:25.552Z,15.80
2023-04-15T01:19:59.330Z,15.81
2023-04-15T01:22:30.893Z,15.83
2023-04-15T01:25:08.455Z,15.85
2023-04-15T01:27:42.628Z,15.86
2023-04-15T01:30:15.725Z,15.86
2023-04-15T01:32:47.745Z,15.86
2023-04-15T01:35:18.952Z,15.86
2023-04-15T01:37:51.437Z,15.87
2023-04-15T01:40:23.338Z,15.87
2023-04-15T01:42:55.369Z,15.86
2023-04-15T01:45:26.604Z,15.86
2023-04-15T01:47:58.133Z,15.85
2023-04-15T01:50:29.763Z,15.85
2023-04-15T01:53:00.877Z,15.85
2023-04-15T01:55:32.960Z,15.84
2023-04-15T01:58:04.480Z,15.83
2023-04-15T02:00:35.573Z,15.83
2023-04-15T02:03:07.868Z,15.82
2023-04-15T02:05:39.041Z,15.82
2023-04-15T02:08:10.716Z,15.82
2023-04-15T02:10:42.977Z,15.82
2023-04-15T02:13:14.902Z,15.81
2023-04-15T02:15:50.311Z,15.81
2023-04-15T02:18:23.921Z,15.81
2023-04-15T02:20:56.782Z,15.80
2023-04-15T02:23:28.263Z,15.79
2023-04-15T02:26:00.077Z,15.79
2023-04-15T02:28:31.320Z,15.80
2023-04-15T02:31:02.468Z,15.79
2023-04-15T02:33:35.785Z,15.78
2023-04-15T02:36:08.423Z,15.78
2023-04-15T02:38:40.953Z,15.78
2023-04-15T02:41:12.551Z,15.78
2023-04-15T02:43:44.179Z,15.77
2023-04-15T02:46:16.363Z,15.76
2023-04-15T02:48:47.772Z,15.74
2023-04-15T02:51:20.960Z,15.72
2023-04-15T02:53:52.556Z,15.70
2023-04-15T02:56:23.816Z,15.69
2023-04-15T02:58:56.327Z,15.70
2023-04-15T03:01:27.737Z,15.69
2023-04-15T03:03:59.291Z,15.69
2023-04-15T03:06:31.078Z,15.67
2023-04-15T03:09:02.444Z,15.65
2023-04-15T03:11:40.821Z,15.63
2023-04-15T03:14:13.113Z,15.62
2023-04-15T03:16:46.942Z,15.62
2023-04-15T03:19:19.093Z,15.61
2023-04-15T03:21:50.545Z,15.62
2023-04-15T03:24:22.373Z,15.61
2023-04-15T03:26:53.650Z,15.60
2023-04-15T03:29:25.058Z,15.59
2023-04-15T03:31:57.149Z,15.59
2023-04-15T03:34:28.686Z,15.58
2023-04-15T03:37:00.416Z,15.59
2023-04-15T03:39:32.130Z,15.58
2023-04-15T03:42:04.309Z,15.57
2023-04-15T03:44:35.540Z,15.56
2023-04-15T03:47:08.031Z,15.55
2023-04-15T03:49:39.604Z,15.54
2023-04-15T03:52:11.117Z,15.52
2023-04-15T03:54:42.593Z,15.51
2023-04-15T03:57:14.814Z,15.50
2023-04-15T03:59:46.206Z,15.50
2023-04-15T04:02:17.819Z,15.49
2023-04-15T04:04:49.237Z,15.49
2023-04-15T04:07:20.903Z,15.47
2023-04-15T04:09:51.900Z,15.45
2023-04-15T04:12:23.137Z,15.44
2023-04-15T04:14:54.410Z,15.44
2023-04-15T04:17:26.134Z,15.44
2023-04-15T04:19:57.392Z,15.42
2023-04-15T04:22:28.845Z,15.40
2023-04-15T04:25:00.713Z,15.39
2023-04-15T04:27:32.144Z,15.39
2023-04-15T04:30:03.629Z,15.39
2023-04-15T04:32:35.182Z,15.38
2023-04-15T04:35:07.392Z,15.37
2023-04-15T04:37:38.585Z,15.37
2023-04-15T04:40:12.869Z,15.37
2023-04-15T04:42:44.346Z,15.36
2023-04-15T04:45:16.482Z,15.37
2023-04-15T04:47:49.418Z,15.37
2023-04-15T04:50:20.758Z,15.39
2023-04-15T04:52:52.717Z,15.39
2023-04-15T04:55:24.216Z,15.38
2023-04-15T04:57:55.738Z,15.39
2023-04-15T05:00:27.247Z,15.48
2023-04-15T05:02:59.398Z,15.74
2023-04-15T05:05:31.191Z,16.00
2023-04-15T05:08:02.856Z,16.21
2023-04-15T05:10:34.402Z,16.38
2023-04-15T05:13:05.796Z,16.50
2023-04-15T05:15:37.357Z,16.63
2023-04-15T05:18:08.977Z,16.74
2023-04-15T05:20:40.721Z,16.82
2023-04-15T05:23:12.048Z,16.85
2023-04-15T05:25:43.736Z,16.92
2023-04-15T05:28:15.744Z,16.97
2023-04-15T05:30:47.449Z,16.97
2023-04-15T05:33:19.432Z,16.95
2023-04-15T05:35:50.837Z,16.92
2023-04-15T05:38:21.911Z,16.90
2023-04-15T05:40:53.549Z,16.88
2023-04-15T05:43:25.086Z,16.83
2023-04-15T05:45:56.225Z,16.79
2023-04-15T05:48:27.948Z,16.80
2023-04-15T05:50:59.763Z,16.77
2023-04-15T05:53:31.238Z,16.77
2023-04-15T05:56:03.063Z,16.77
2023-04-15T05:58:34.400Z,16.79
2023-04-15T06:01:06.056Z,16.81
2023-04-15T06:03:37.989Z,16.83
2023-04-15T06:06:10.355Z,16.85
2023-04-15T06:08:41.476Z,16.88
2023-04-15T06:11:12.941Z,16.91
2023-04-15T06:13:44.203Z,16.93
2023-04-15T06:16:15.625Z,16.94
2023-04-15T06:18:47.070Z,16.92
2023-04-15T06:21:19.049Z,16.89
2023-04-15T06:23:50.072Z,16.87
2023-04-15T06:26:21.543Z,16.86
2023-04-15T06:28:53.308Z,16.84
2023-04-15T06:31:25.316Z,16.81
2023-04-15T06:33:56.398Z,16.75
2023-04-15T06:36:28.065Z,16.71
2023-04-15T06:38:59.719Z,16.67
2023-04-15T06:41:31.311Z,16.60
2023-04-15T06:44:03.484Z,16.55
2023-04-15T06:46:36.286Z,16.53
2023-04-15T06:49:08.269Z,16.51
2023-04-15T06:51:40.131Z,16.48
2023-04-15T06:54:11.699Z,16.46
2023-04-15T06:56:43.393Z,16.43
2023-04-15T06:59:14.953Z,16.35
2023-04-15T07:01:46.609Z,16.34
2023-04-15T07:04:18.254Z,16.36
2023-04-15T07:06:49.467Z,16.40
2023-04-15T07:09:21.014Z,16.41
2023-04-15T07:11:52.892Z,16.43
2023-04-15T07:14:24.784Z,16.44
2023-04-15T07:16:56.897Z,16.42
2023-04-15T07:19:28.846Z,16.44
2023-04-15T07:22:00.289Z,16.44
2023-04-15T07:24:31.710Z,16.42
2023-04-15T07:27:04.216Z,16.39
2023-04-15T07:29:36.579Z,16.30
2023-04-15T07:32:08.642Z,16.22
2023-04-15T07:34:40.350Z,16.15
2023-04-15T07:37:11.876Z,16.08
2023-04-15T07:39:43.841Z,15.99
2023-04-15T07:42:16.576Z,15.91
2023-04-15T07:44:48.320Z,15.86
2023-04-15T07:47:19.688Z,15.79
2023-04-15T07:49:51.632Z,15.74
2023-04-15T07:52:23.261Z,15.71
2023-04-15T07:54:54.939Z,15.68
2023-04-15T07:57:26.375Z,15.69
2023-04-15T07:59:57.873Z,15.65
2023-04-15T08:02:29.781Z,15.63
2023-04-15T08:05:03.400Z,15.62
2023-04-15T08:07:35.154Z,15.54
2023-04-15T08:10:07.437Z,15.47
2023-04-15T08:12:38.881Z,15.38
2023-04-15T08:15:13.287Z,15.29
2023-04-15T08:17:44.677Z,15.24
2023-04-15T08:20:16.412Z,15.20
2023-04-15T08:22:52.152Z,15.18
2023-04-15T08:25:23.752Z,15.14
2023-04-15T08:27:56.838Z,15.12
2023-04-15T08:30:28.348Z,15.11
2023-04-15T08:32:59.768Z,15.11
2023-04-15T08:35:31.824Z,15.10
2023-04-15T08:38:03.365Z,15.10
2023-04-15T08:40:43.782Z,15.10
2023-04-15T08:43:17.427Z,15.11
2023-04-15T08:45:51.879Z,15.12
2023-04-15T08:48:24.768Z,15.14
2023-04-15T08:50:57.386Z,15.17
2023-04-15T08:53:30.759Z,15.20
2023-04-15T08:56:06.168Z,15.24
2023-04-15T08:58:39.003Z,15.26
2023-04-15T09:01:11.548Z,15.28
2023-04-15T09:03:43.486Z,15.31
2023-04-15T09:06:16.740Z,15.38
2023-04-15T09:08:48.206Z,15.47
2023-04-15T09:11:20.283Z,15.53
2023-04-15T09:13:52.399Z,15.58
2023-04-15T09:16:24.356Z,15.61
2023-04-15T09:18:55.928Z,15.66
2023-04-15T09:21:28.007Z,15.71
2023-04-15T09:24:00.547Z,15.76
2023-04-15T09:26:36.884Z,15.81
2023-04-15T09:29:13.998Z,15.84
2023-04-15T09:31:47.375Z,15.88
2023-04-15T09:34:19.183Z,15.91
2023-04-15T09:37:00.634Z,15.96
2023-04-15T09:39:49.981Z,16.01
2023-04-15T09:42:24.729Z,16.07
2023-04-15T09:44:56.190Z,16.12
2023-04-15T09:47:34.138Z,16.15
2023-04-15T09:50:05.573Z,16.18
2023-04-15T09:52:43.342Z,16.22
2023-04-15T09:55:17.126Z,16.25
2023-04-15T09:57:49.680Z,16.27
2023-04-15T10:00:21.299Z,16.29
2023-04-15T10:02:53.408Z,16.32
2023-04-15T10:05:25.769Z,16.36
2023-04-15T10:07:58.127Z,16.41
2023-04-15T10:10:29.663Z,16.47
2023-04-15T10:13:01.501Z,16.53
2023-04-15T10:15:34.989Z,16.56
2023-04-15T10:18:09.163Z,16.57
2023-04-15T10:20:42.292Z,16.60
2023-04-15T10:23:13.926Z,16.62
2023-04-15T10:25:46.050Z,16.61
2023-04-15T10:28:17.818Z,16.59
2023-04-15T10:30:50.387Z,16.55
2023-04-15T10:33:24.430Z,16.52
2023-04-15T10:35:57.743Z,16.48
2023-04-15T10:38:41.925Z,16.41
2023-04-15T10:41:21.845Z,16.31
2023-04-15T10:43:56.225Z,16.26
2023-04-15T10:46:37.299Z,16.24
2023-04-15T10:49:14.098Z,16.22
2023-04-15T10:51:47.337Z,16.17
2023-04-15T10:54:31.906Z,16.10
2023-04-15T10:57:16.557Z,16.08
2023-04-15T11:00:18.061Z,16.06
2023-04-15T11:02:54.207Z,16.06
2023-04-15T11:05:44.692Z,16.06
2023-04-15T11:08:17.387Z,16.11
2023-04-15T11:10:57.746Z,16.19
2023-04-15T11:13:34.368Z,16.26
2023-04-15T11:16:06.607Z,16.33
2023-04-15T11:18:38.179Z,16.42
2023-04-15T11:21:11.013Z,16.45
2023-04-15T11:23:47.071Z,16.55
2023-04-15T11:26:19.153Z,16.67
2023-04-15T11:28:50.610Z,16.78
2023-04-15T11:31:24.091Z,16.84
2023-04-15T11:34:00.291Z,16.84
2023-04-15T11:36:33.278Z,16.87
2023-04-15T11:39:08.678Z,16.89
2023-04-15T11:41:40.349Z,16.94
2023-04-15T11:44:20.657Z,16.98
2023-04-15T11:46:52.052Z,17.03
2023-04-15T11:49:35.059Z,17.08
2023-04-15T11:52:14.855Z,17.12
2023-04-15T11:54:46.288Z,17.16
2023-04-15T11:57:17.828Z,17.21
2023-04-15T11:59:49.267Z,17.25
2023-04-15T12:02:20.755Z,17.31
2023-04-15T12:04:52.358Z,17.36
2023-04-15T12:07:23.867Z,17.38
2023-04-15T12:10:00.104Z,17.43
2023-04-15T12:12:32.461Z,17.48
2023-04-15T12:15:04.016Z,17.51
2023-04-15T12:17:51.092Z,17.52
2023-04-15T12:20:28.613Z,17.53
2023-04-15T12:23:09.427Z,17.55
2023-04-15T12:25:40.957Z,17.58
2023-04-15T12:28:15.551Z,17.61
2023-04-15T12:30:54.025Z,17.63
2023-04-15T12:33:25.393Z,17.61
2023-04-15T12:35:57.451Z,17.55
2023-04-15T12:38:28.599Z,17.49
2023-04-15T12:41:00.120Z,17.44
2023-04-15T12:43:31.926Z,17.38
2023-04-15T12:46:03.751Z,17.31
2023-04-15T12:48:35.287Z,17.21
2023-04-15T12:51:07.001Z,17.16
2023-04-15T12:53:38.752Z,17.14
2023-04-15T12:56:11.041Z,17.12
2023-04-15T12:58:42.113Z,17.09
2023-04-15T13:01:13.244Z,17.10
2023-04-15T13:03:45.007Z,17.10
2023-04-15T13:06:16.780Z,17.10
2023-04-15T13:08:57.900Z,17.13
2023-04-15T13:11:31.494Z,17.13
2023-04-15T13:14:04.115Z,17.11
2023-04-15T13:16:36.739Z,17.11
2023-04-15T13:19:08.231Z,17.10
2023-04-15T13:21:39.941Z,17.10
2023-04-15T13:24:11.646Z,17.12
2023-04-15T13:26:43.378Z,17.11
2023-04-15T13:29:14.621Z,17.11
2023-04-15T13:31:46.227Z,17.11
2023-04-15T13:34:17.913Z,17.12
2023-04-15T13:36:50.003Z,17.12
2023-04-15T13:39:22.241Z,17.12
2023-04-15T13:41:53.918Z,17.13
2023-04-15T13:44:25.933Z,17.13
2023-04-15T13:46:57.613Z,17.13
2023-04-15T13:49:29.188Z,17.15
2023-04-15T13:52:00.745Z,17.16
2023-04-15T13:54:37.474Z,17.19
2023-04-15T13:57:09.844Z,17.20
2023-04-15T13:59:41.128Z,17.20
2023-04-15T14:02:12.716Z,17.21
2023-04-15T14:04:44.343Z,17.23
2023-04-15T14:07:16.129Z,17.26
2023-04-15T14:09:48.310Z,17.31
2023-04-15T14:12:19.412Z,17.38
2023-04-15T14:14:51.171Z,17.42
2023-04-15T14:17:22.355Z,17.45
2023-04-15T14:19:54.689Z,17.49
2023-04-15T14:22:26.483Z,17.52
2023-04-15T14:24:58.377Z,17.54
2023-04-15T14:27:30.060Z,17.58
2023-04-15T14:30:02.023Z,17.62
2023-04-15T14:32:33.529Z,17.59
2023-04-15T14:35:05.677Z,17.58
2023-04-15T14:37:39.852Z,17.54
2023-04-15T14:40:13.047Z,17.55
2023-04-15T14:42:44.540Z,17.56
2023-04-15T14:45:16.661Z,17.57
2023-04-15T14:47:48.817Z,17.58
2023-04-15T14:50:21.000Z,17.59
2023-04-15T14:52:52.677Z,17.62
2023-04-15T14:55:24.320Z,17.64
2023-04-15T14:57:55.760Z,17.66
2023-04-15T15:00:27.242Z,17.67
2023-04-15T15:02:59.976Z,17.67
2023-04-15T15:05:31.892Z,17.72
2023-04-15T15:08:03.444Z,17.76
2023-04-15T15:10:48.653Z,17.81
2023-04-15T15:13:21.557Z,17.86
2023-04-15T15:15:53.107Z,17.87
2023-04-15T15:18:25.761Z,17.84
2023-04-15T15:20:57.684Z,17.81
2023-04-15T15:23:29.151Z,17.83
2023-04-15T15:26:01.312Z,17.86
2023-04-15T15:28:33.089Z,17.89
2023-04-15T15:31:05.708Z,17.90
2023-04-15T15:33:37.188Z,17.89
2023-04-15T15:36:11.177Z,17.86
2023-04-15T15:38:43.156Z,17.80
2023-04-15T15:41:15.786Z,17.74
2023-04-15T15:43:47.599Z,17.67
2023-04-15T15:46:19.280Z,17.61
2023-04-15T15:48:50.915Z,17.56
2023-04-15T15:51:23.192Z,17.51
2023-04-15T15:53:54.690Z,17.47
2023-04-15T15:56:27.067Z,17.44
2023-04-15T15:58:58.371Z,17.41
2023-04-15T16:01:30.218Z,17.38
2023-04-15T16:04:01.680Z,17.33
2023-04-15T16:06:35.120Z,17.30
2023-04-15T16:09:07.131Z,17.28
2023-04-15T16:11:38.976Z,17.25
2023-04-15T16:14:10.748Z,17.23
2023-04-15T16:16:42.315Z,17.20
2023-04-15T16:19:13.794Z,17.16
2023-04-15T16:21:45.887Z,17.12
2023-04-15T16:24:17.891Z,17.09
2023-04-15T16:26:50.827Z,17.07
2023-04-15T16:29:22.644Z,17.04
2023-04-15T16:31:54.314Z,17.03
2023-04-15T16:34:26.284Z,17.00
2023-04-15T16:36:57.799Z,16.98
2023-04-15T16:39:29.726Z,16.95
2023-04-15T16:42:02.506Z,16.91
2023-04-15T16:44:34.710Z,16.88
2023-04-15T16:47:06.861Z,16.84
2023-04-15T16:49:38.141Z,16.95
2023-04-15T16:52:10.997Z,17.04
2023-04-15T16:54:43.575Z,17.12
2023-04-15T16:57:15.539Z,17.20
2023-04-15T16:59:50.510Z,17.31
2023-04-15T17:02:22.895Z,17.39
2023-04-15T17:04:56.747Z,17.61
2023-04-15T17:07:29.713Z,17.88
2023-04-15T17:10:01.101Z,18.11
2023-04-15T17:12:33.003Z,18.27
2023-04-15T17:15:04.723Z,18.39
2023-04-15T17:17:36.376Z,18.50
2023-04-15T17:20:09.409Z,18.58
2023-04-15T17:22:41.051Z,18.60
2023-04-15T17:25:13.102Z,18.69
2023-04-15T17:27:44.963Z,18.78
2023-04-15T17:30:16.778Z,18.82
2023-04-15T17:32:48.615Z,18.81
2023-04-15T17:35:20.517Z,18.80
2023-04-15T17:37:51.666Z,18.81
2023-04-15T17:40:24.084Z,18.80
2023-04-15T17:42:55.505Z,18.78
2023-04-15T17:45:26.936Z,18.68
2023-04-15T17:47:59.888Z,18.48
2023-04-15T17:50:31.213Z,18.22
2023-04-15T17:53:02.990Z,17.97
2023-04-15T17:55:34.314Z,17.78
2023-04-15T17:58:06.390Z,17.61
2023-04-15T18:00:37.680Z,17.45
2023-04-15T18:03:09.350Z,17.33
2023-04-15T18:05:42.545Z,17.19
2023-04-15T18:08:14.606Z,17.07
2023-04-15T18:10:45.849Z,16.95
2023-04-15T18:13:17.026Z,16.85
2023-04-15T18:15:49.642Z,16.76
2023-04-15T18:18:20.970Z,16.68
2023-04-15T18:20:52.312Z,16.60
2023-04-15T18:23:23.701Z,16.51
2023-04-15T18:25:55.071Z,16.43
2023-04-15T18:28:26.965Z,16.37
2023-04-15T18:30:58.506Z,16.33
2023-04-15T18:33:30.032Z,16.29
2023-04-15T18:36:02.735Z,16.25
2023-04-15T18:38:34.084Z,16.21
2023-04-15T18:41:05.584Z,16.15
2023-04-15T18:43:36.885Z,16.10
2023-04-15T18:46:11.886Z,16.03
2023-04-15T18:48:43.367Z,15.96
2023-04-15T18:51:15.042Z,15.91
2023-04-15T18:53:46.782Z,15.87
2023-04-15T18:56:18.085Z,15.83
2023-04-15T18:59:18.618Z,15.79
2023-04-15T19:01:40.937Z,15.75
2023-04-15T19:04:12.794Z,15.73
2023-04-15T19:06:44.211Z,15.72
2023-04-15T19:09:16.946Z,15.70
2023-04-15T19:11:48.622Z,15.66
2023-04-15T19:14:20.149Z,15.63
2023-04-15T19:16:51.480Z,15.60
2023-04-15T19:19:23.124Z,15.58
2023-04-15T19:21:55.606Z,15.56
2023-04-15T19:24:27.307Z,15.52
2023-04-15T19:26:58.981Z,15.46
2023-04-15T19:29:30.785Z,15.44
2023-04-15T19:32:02.244Z,15.41
2023-04-15T19:34:33.874Z,15.36
2023-04-15T19:37:05.498Z,15.31
2023-04-15T19:39:36.986Z,15.25
2023-04-15T19:42:08.432Z,15.20
2023-04-15T19:44:43.032Z,15.13
2023-04-15T19:47:15.741Z,15.08
2023-04-15T19:49:47.248Z,15.01
2023-04-15T19:52:19.273Z,14.97
2023-04-15T19:54:50.619Z,14.91
2023-04-15T19:57:22.476Z,14.87
2023-04-15T19:59:54.025Z,14.87
2023-04-15T20:02:25.963Z,14.88
2023-04-15T20:04:57.469Z,14.89
2023-04-15T20:07:28.782Z,14.88
2023-04-15T20:10:00.202Z,14.86
2023-04-15T20:12:50.532Z,14.86
2023-04-15T20:15:24.188Z,14.86
2023-04-15T20:17:55.493Z,14.79
2023-04-15T20:20:27.206Z,14.76
2023-04-15T20:22:58.779Z,14.77
2023-04-15T20:25:30.531Z,14.70
2023-04-15T20:28:01.967Z,14.67
2023-04-15T20:30:33.447Z,14.67
2023-04-15T20:33:05.749Z,14.69
2023-04-15T20:35:37.169Z,14.72
2023-04-15T20:38:08.729Z,14.75
2023-04-15T20:40:41.635Z,14.77
2023-04-15T20:43:13.897Z,14.77
2023-04-15T20:45:45.580Z,14.78
2023-04-15T20:48:17.193Z,14.80
2023-04-15T20:50:48.782Z,14.83
2023-04-15T20:53:20.402Z,14.86
2023-04-15T20:55:51.857Z,14.82
2023-04-15T20:58:23.249Z,14.81
2023-04-15T21:00:55.329Z,14.84
2023-04-15T21:03:27.396Z,14.82
2023-04-15T21:05:59.471Z,14.79
2023-04-15T21:08:31.977Z,14.80
2023-04-15T21:11:03.240Z,14.77
2023-04-15T21:13:35.340Z,14.69
2023-04-15T21:16:07.460Z,14.64
2023-04-15T21:18:39.012Z,14.59
2023-04-15T21:21:10.732Z,14.57
2023-04-15T21:23:42.749Z,14.57
2023-04-15T21:26:14.276Z,14.62
2023-04-15T21:28:45.531Z,14.67
2023-04-15T21:31:16.733Z,14.72
2023-04-15T21:33:49.091Z,14.77
2023-04-15T21:36:20.648Z,14.79
2023-04-15T21:38:51.939Z,14.82
2023-04-15T21:41:23.459Z,14.85
2023-04-15T21:43:54.820Z,14.87
2023-04-15T21:46:33.189Z,14.88
2023-04-15T21:49:07.795Z,14.89
2023-04-15T21:51:39.221Z,14.90
2023-04-15T21:54:10.548Z,14.91
2023-04-15T21:56:42.757Z,14.92
2023-04-15T21:59:14.008Z,14.94
2023-04-15T22:01:45.321Z,14.97
2023-04-15T22:04:17.035Z,15.01
2023-04-15T22:06:48.740Z,15.06
2023-04-15T22:09:20.058Z,15.12
2023-04-15T22:11:52.375Z,15.16
2023-04-15T22:14:23.985Z,15.22
2023-04-15T22:16:56.077Z,15.29
2023-04-15T22:19:27.852Z,15.38
2023-04-15T22:22:00.058Z,15.46
2023-04-15T22:24:39.329Z,15.54
2023-04-15T22:27:13.192Z,15.60
2023-04-15T22:29:44.755Z,15.67
2023-04-15T22:32:16.288Z,15.76
2023-04-15T22:34:47.708Z,15.83
2023-04-15T22:37:19.076Z,15.90
2023-04-15T22:39:51.003Z,15.96
2023-04-15T22:42:22.811Z,16.02
2023-04-15T22:44:54.464Z,16.06
2023-04-15T22:47:27.271Z,16.10
2023-04-15T22:49:58.939Z,16.13
2023-04-15T22:52:31.441Z,16.16
2023-04-15T22:55:04.051Z,16.18
2023-04-15T22:57:35.572Z,16.20
2023-04-15T23:00:08.921Z,16.21
2023-04-15T23:02:40.754Z,16.21
2023-04-15T23:05:13.624Z,16.22
2023-04-15T23:07:44.732Z,16.22
2023-04-15T23:10:16.224Z,16.21
2023-04-15T23:12:48.188Z,16.21
2023-04-15T23:15:19.762Z,16.21
2023-04-15T23:17:51.515Z,16.20
2023-04-15T23:20:23.286Z,16.20
2023-04-15T23:22:54.324Z,16.20
2023-04-15T23:25:26.327Z,16.19
2023-04-15T23:27:57.979Z,16.18
2023-04-15T23:30:29.656Z,16.17
2023-04-15T23:33:01.179Z,16.15
2023-04-15T23:35:32.696Z,16.12
2023-04-15T23:38:03.964Z,16.08
2023-04-15T23:40:35.571Z,16.03
2023-04-15T23:43:07.108Z,16.01
2023-04-15T23:45:38.618Z,16.00
2023-04-15T23:48:10.576Z,16.00
2023-04-15T23:50:42.623Z,16.01
2023-04-15T23:53:14.301Z,16.01
2023-04-15T23:55:45.871Z,16.01
2023-04-15T23:58:17.517Z,16.00
